Time;durP1;ratioP1;P1;durP2;ratioP2;P2;SDS_P1;SDS_P2;PMS_P1;PMS_P2;Temp;Humidity;BMP_temperature;BMP_pressure;BME280_temperature;BME280_humidity;BME280_pressure;Samples;Min_cycle;Max_cycle;Signal;HPM_P1;HPM_P2
2023/10/13 00:01:39;;;;;;;11.45;5.20;;;;;;;;;;4949125;28;20504;-82
2023/10/13 00:04:25;;;;;;;8.25;4.13;;;;;;;;;;4955348;28;20438;-81
2023/10/13 00:07:11;;;;;;;7.78;3.67;;;;;;;;;;4951263;28;20042;-81
2023/10/13 00:09:56;;;;;;;11.63;5.30;;;;;;;;;;4950642;28;20058;-81
2023/10/13 00:12:49;;;;;;;8.73;3.72;;;;;;;;;;4949020;28;20793;-81
2023/10/13 00:15:46;;;;;;;11.73;4.95;;;;;;;;;;4944897;28;20039;-80
2023/10/13 00:18:34;;;;;;;9.20;4.05;;;;;;;;;;4923810;29;20687;-81
2023/10/13 00:21:31;;;;;;;9.05;3.85;;;;;;;;;;4930079;29;20616;-81
2023/10/13 00:24:23;;;;;;;9.20;4.60;;;;;;;;;;4920369;29;20019;-81
2023/10/13 00:27:41;;;;;;;6.30;3.50;;;;;;;;;;4916830;29;20039;-81
2023/10/13 00:30:35;;;;;;;8.63;4.18;;;;;;;;;;4913924;29;20082;-79
2023/10/13 00:33:21;;;;;;;15.18;4.95;;;;;;;;;;4924960;29;20043;-79
2023/10/13 00:36:07;;;;;;;10.60;4.50;;;;;;;;;;4916707;29;20061;-79
2023/10/13 00:38:56;;;;;;;12.85;3.90;;;;;;;;;;4917151;29;20110;-79
2023/10/13 00:41:52;;;;;;;9.90;3.78;;;;;;;;;;4917416;29;20549;-79
2023/10/13 00:44:38;;;;;;;10.75;4.63;;;;;;;;;;4939597;28;20020;-79
2023/10/13 00:50:20;;;;;;;7.15;4.00;;;;;;;;;;4917945;29;20367;-78
2023/10/13 00:53:07;;;;;;;8.45;4.22;;;;;;;;;;4946450;29;20390;-79
2023/10/13 00:55:55;;;;;;;8.70;4.45;;;;;;;;;;4917802;29;20810;-80
2023/10/13 00:58:40;;;;;;;7.50;4.20;;;;;;;;;;4923388;29;20038;-81
2023/10/13 01:01:36;;;;;;;7.97;3.85;;;;;;;;;;4916052;29;20111;-81
2023/10/13 01:04:27;;;;;;;9.27;4.10;;;;;;;;;;4923683;29;20050;-80
2023/10/13 01:07:15;;;;;;;8.02;3.60;;;;;;;;;;4917788;29;20039;-81
2023/10/13 01:10:04;;;;;;;8.55;3.50;;;;;;;;;;4918541;29;20037;-81
2023/10/13 01:12:52;;;;;;;6.87;3.80;;;;;;;;;;4941059;29;20054;-80
2023/10/13 01:15:41;;;;;;;14.25;4.25;;;;;;;;;;4917068;29;20042;-81
2023/10/13 01:18:28;;;;;;;8.98;4.55;;;;;;;;;;4953751;28;20043;-81
2023/10/13 01:21:20;;;;;;;11.38;4.78;;;;;;;;;;4949638;28;20070;-79
2023/10/13 01:24:07;;;;;;;7.95;3.50;;;;;;;;;;4950076;29;20121;-79
2023/10/13 01:26:53;;;;;;;13.20;4.03;;;;;;;;;;4951491;28;20758;-80
2023/10/13 01:29:40;;;;;;;7.60;3.92;;;;;;;;;;4957808;28;20057;-80
2023/10/13 01:32:25;;;;;;;9.32;4.18;;;;;;;;;;4950552;28;20098;-79
2023/10/13 01:35:10;;;;;;;12.05;4.30;;;;;;;;;;4947674;28;20031;-80
2023/10/13 01:37:56;;;;;;;8.95;4.00;;;;;;;;;;4962803;28;20059;-80
2023/10/13 01:40:42;;;;;;;10.88;4.57;;;;;;;;;;4950581;28;20040;-80
2023/10/13 01:43:28;;;;;;;6.70;4.10;;;;;;;;;;4956736;28;20051;-80
2023/10/13 01:46:13;;;;;;;10.40;4.00;;;;;;;;;;4944345;28;20031;-79
2023/10/13 01:49:00;;;;;;;10.63;4.72;;;;;;;;;;4956151;28;20027;-79
2023/10/13 01:51:47;;;;;;;11.02;4.40;;;;;;;;;;4943367;28;20359;-80
2023/10/13 01:54:32;;;;;;;10.73;4.70;;;;;;;;;;4965288;28;20055;-80
2023/10/13 01:57:17;;;;;;;10.82;4.65;;;;;;;;;;4948900;29;20106;-79
2023/10/13 02:00:18;;;;;;;10.55;4.88;;;;;;;;;;4943792;28;20470;-79
2023/10/13 02:03:03;;;;;;;9.70;4.78;;;;;;;;;;4957182;28;20037;-79
2023/10/13 02:05:51;;;;;;;6.93;3.75;;;;;;;;;;4947959;28;20032;-79
2023/10/13 02:08:40;;;;;;;13.27;4.60;;;;;;;;;;4948540;28;20046;-79
2023/10/13 02:11:25;;;;;;;6.70;3.88;;;;;;;;;;4945538;28;20031;-80
2023/10/13 02:14:17;;;;;;;12.57;4.53;;;;;;;;;;4950608;28;20061;-79
2023/10/13 02:17:16;;;;;;;11.63;5.20;;;;;;;;;;4948116;28;20036;-81
2023/10/13 02:20:07;;;;;;;11.90;4.55;;;;;;;;;;4948336;28;20027;-80
2023/10/13 02:22:53;;;;;;;9.15;4.03;;;;;;;;;;4948818;28;20039;-78
2023/10/13 02:25:45;;;;;;;9.30;4.25;;;;;;;;;;4941691;28;20418;-80
2023/10/13 02:28:34;;;;;;;11.48;4.68;;;;;;;;;;4951896;28;20039;-80
2023/10/13 02:31:24;;;;;;;8.63;5.22;;;;;;;;;;4944790;28;20035;-78
2023/10/13 02:34:11;;;;;;;7.68;4.22;;;;;;;;;;4949640;28;20114;-78
2023/10/13 02:36:57;;;;;;;8.93;4.05;;;;;;;;;;4944526;28;20023;-79
2023/10/13 02:39:42;;;;;;;10.55;5.10;;;;;;;;;;4946853;28;20147;-80
2023/10/13 02:42:27;;;;;;;8.55;3.53;;;;;;;;;;4950660;28;20094;-80
2023/10/13 02:45:13;;;;;;;10.27;5.05;;;;;;;;;;4950138;28;20027;-80
2023/10/13 02:51:05;;;;;;;6.75;4.07;;;;;;;;;;4943575;28;20019;-79
2023/10/13 02:53:52;;;;;;;9.20;4.60;;;;;;;;;;4949427;28;20635;-80
2023/10/13 02:56:37;;;;;;;9.88;3.97;;;;;;;;;;4944519;28;20089;-80
2023/10/13 02:59:34;;;;;;;19.85;5.13;;;;;;;;;;4954990;28;20031;-79
2023/10/13 03:02:25;;;;;;;9.75;4.20;;;;;;;;;;4949713;28;20616;-79
2023/10/13 03:05:13;;;;;;;8.32;4.70;;;;;;;;;;4951012;28;20539;-79
2023/10/13 03:07:58;;;;;;;6.30;3.85;;;;;;;;;;4954375;28;20027;-79
2023/10/13 03:10:46;;;;;;;11.40;5.18;;;;;;;;;;4958896;28;20015;-79
2023/10/13 03:13:34;;;;;;;13.60;4.93;;;;;;;;;;4952445;29;20035;-79
2023/10/13 03:16:19;;;;;;;11.05;4.53;;;;;;;;;;4949724;28;20019;-80
2023/10/13 03:19:07;;;;;;;11.23;4.78;;;;;;;;;;4966978;28;20118;-80
2023/10/13 03:21:57;;;;;;;10.48;4.50;;;;;;;;;;4950438;28;20095;-78
2023/10/13 03:24:49;;;;;;;7.50;4.75;;;;;;;;;;4956472;28;20039;-80
2023/10/13 03:27:48;;;;;;;14.02;4.88;;;;;;;;;;4958801;28;20039;-81
2023/10/13 03:30:42;;;;;;;7.88;3.97;;;;;;;;;;4949228;28;20121;-80
2023/10/13 03:33:27;;;;;;;11.32;4.57;;;;;;;;;;4958473;28;20034;-80
2023/10/13 03:36:56;;;;;;;9.70;4.70;;;;;;;;;;4951065;28;20584;-80
2023/10/13 03:39:27;;;;;;;12.07;4.70;;;;;;;;;;4955067;28;20023;-80
2023/10/13 03:42:18;;;;;;;7.05;4.47;;;;;;;;;;4962033;28;20043;-79
2023/10/13 03:45:05;;;;;;;8.73;4.72;;;;;;;;;;4965064;28;20039;-81
2023/10/13 03:47:53;;;;;;;8.52;4.85;;;;;;;;;;4954201;28;20027;-80
2023/10/13 03:50:57;;;;;;;10.15;4.75;;;;;;;;;;4962593;28;20027;-81
2023/10/13 03:53:56;;;;;;;11.18;4.95;;;;;;;;;;4971984;28;20035;-80
2023/10/13 03:56:44;;;;;;;8.35;5.30;;;;;;;;;;4957109;28;20089;-80
2023/10/13 03:59:35;;;;;;;13.75;5.15;;;;;;;;;;4949160;29;20500;-80
2023/10/13 04:02:21;;;;;;;11.48;5.38;;;;;;;;;;4957017;28;20042;-79
2023/10/13 04:05:09;;;;;;;20.85;5.95;;;;;;;;;;4952532;28;20117;-79
2023/10/13 04:14:55;;;;;;;11.57;5.43;;;;;;;;;;4968293;28;20256;-79
2023/10/13 04:17:33;;;;;;;10.43;3.85;;;;;;;;;;4951424;28;20051;-79
2023/10/13 04:20:32;;;;;;;;;;;;;;;;;;4945085;29;20030;-79
2023/10/13 04:23:19;;;;;;;11.63;4.90;;;;;;;;;;4943883;29;19914;-79
2023/10/13 04:26:20;;;;;;;10.07;4.95;;;;;;;;;;4956887;28;20362;-79
2023/10/13 04:29:28;;;;;;;14.15;4.60;;;;;;;;;;4962682;28;20038;-80
2023/10/13 04:32:15;;;;;;;11.70;5.43;;;;;;;;;;4947304;29;20163;-79
2023/10/13 04:38:01;;;;;;;9.27;5.32;;;;;;;;;;4949015;28;20089;-78
2023/10/13 04:40:59;;;;;;;9.95;4.82;;;;;;;;;;4950655;28;20062;-80
2023/10/13 04:43:55;;;;;;;12.48;5.38;;;;;;;;;;4948277;28;20268;-80
2023/10/13 04:49:49;;;;;;;11.70;4.60;;;;;;;;;;4963400;28;20038;-79
2023/10/13 04:52:45;;;;;;;9.75;5.20;;;;;;;;;;4951077;28;20512;-80
2023/10/13 04:55:48;;;;;;;11.20;4.78;;;;;;;;;;4950548;29;20066;-80
2023/10/13 05:04:30;;;;;;;9.13;4.47;;;;;;;;;;4946330;29;20118;-81
2023/10/13 06:29:45;;;;;;;9.57;4.68;;;;;;;;;;4920430;29;20031;-79
2023/10/13 06:32:32;;;;;;;12.05;5.20;;;;;;;;;;4926930;29;20040;-81
2023/10/13 06:35:23;;;;;;;12.23;5.22;;;;;;;;;;4922500;29;20027;-80
2023/10/13 06:38:20;;;;;;;13.82;5.22;;;;;;;;;;4924540;29;20020;-82
2023/10/13 06:41:06;;;;;;;11.77;4.88;;;;;;;;;;4917127;29;20027;-81
2023/10/13 06:43:59;;;;;;;11.82;4.97;;;;;;;;;;4924656;29;20042;-82
2023/10/13 06:46:44;;;;;;;13.25;5.50;;;;;;;;;;4933093;29;20031;-81
2023/10/13 06:49:29;;;;;;;12.23;5.93;;;;;;;;;;4921770;29;20050;-85
2023/10/13 06:52:16;;;;;;;9.43;5.13;;;;;;;;;;4919470;29;20039;-83
2023/10/13 06:55:04;;;;;;;20.60;6.03;;;;;;;;;;4905262;29;20035;-82
2023/10/13 06:57:51;;;;;;;15.02;6.63;;;;;;;;;;4919208;29;21618;-82
2023/10/13 07:00:38;;;;;;;12.55;5.43;;;;;;;;;;4916664;29;20353;-82
2023/10/13 07:03:24;;;;;;;11.07;4.78;;;;;;;;;;4919152;29;20039;-80
2023/10/13 07:06:17;;;;;;;12.35;5.53;;;;;;;;;;4919447;29;20031;-82
2023/10/13 07:09:04;;;;;;;12.52;4.75;;;;;;;;;;4942866;28;20489;-83
2023/10/13 07:11:52;;;;;;;8.25;4.10;;;;;;;;;;4917367;29;20046;-82
2023/10/13 07:14:38;;;;;;;15.95;5.85;;;;;;;;;;4931526;29;20098;-86
2023/10/13 07:17:23;;;;;;;14.52;4.88;;;;;;;;;;4921563;29;20417;-83
2023/10/13 07:20:15;;;;;;;12.13;5.15;;;;;;;;;;4930936;29;20030;-82
2023/10/13 07:23:03;;;;;;;16.10;6.30;;;;;;;;;;4935191;29;20510;-83
2023/10/13 07:25:54;;;;;;;10.77;5.97;;;;;;;;;;4927398;29;20162;-81
2023/10/13 07:28:43;;;;;;;9.63;3.67;;;;;;;;;;4935828;29;20024;-84
2023/10/13 07:31:28;;;;;;;8.35;4.38;;;;;;;;;;4931539;29;20389;-81
2023/10/13 07:34:26;;;;;;;7.55;4.55;;;;;;;;;;4932608;29;20059;-82
2023/10/13 07:37:16;;;;;;;10.48;4.55;;;;;;;;;;4930693;29;20091;-82
2023/10/13 07:40:09;;;;;;;9.00;4.68;;;;;;;;;;4931675;29;20023;-83
2023/10/13 07:43:00;;;;;;;17.73;6.28;;;;;;;;;;4928275;29;20083;-81
2023/10/13 07:45:50;;;;;;;12.73;5.75;;;;;;;;;;4930531;29;20141;-80
2023/10/13 07:48:35;;;;;;;;;;;;;;;;;;4941962;29;20117;-82
2023/10/13 07:51:22;;;;;;;8.98;4.07;;;;;;;;;;4930727;29;19914;-81
2023/10/13 07:54:11;;;;;;;10.13;4.15;;;;;;;;;;4932018;29;20544;-82
2023/10/13 07:56:56;;;;;;;10.15;4.28;;;;;;;;;;4932901;29;20544;-81
2023/10/13 07:59:47;;;;;;;9.23;4.57;;;;;;;;;;4934792;29;20050;-80
2023/10/13 08:05:55;;;;;;;11.45;4.20;;;;;;;;;;4933628;29;20055;-81
2023/10/13 08:08:43;;;;;;;7.45;3.38;;;;;;;;;;4941689;29;20035;-79
2023/10/13 08:11:34;;;;;;;11.80;3.75;;;;;;;;;;4935100;29;20083;-81
2023/10/13 08:14:23;;;;;;;10.68;4.78;;;;;;;;;;4933662;29;20035;-83
2023/10/13 08:17:12;;;;;;;6.38;3.45;;;;;;;;;;4933502;29;20036;-80
2023/10/13 08:19:58;;;;;;;11.07;3.83;;;;;;;;;;4908658;29;20036;-80
2023/10/13 08:22:47;;;;;;;9.40;3.50;;;;;;;;;;4907173;29;20024;-81
2023/10/13 08:31:29;;;;;;;10.27;4.28;;;;;;;;;;4908062;29;20020;-81
2023/10/13 08:34:22;;;;;;;8.15;3.35;;;;;;;;;;4912763;29;20593;-81
2023/10/13 08:48:35;;;;;;;8.82;3.40;;;;;;;;;;4913696;29;20086;-81
2023/10/13 08:51:43;;;;;;;9.63;4.13;;;;;;;;;;4929918;29;20467;-83
2023/10/13 08:54:39;;;;;;;7.00;3.50;;;;;;;;;;4909658;29;20047;-82
2023/10/13 08:57:33;;;;;;;9.07;4.63;;;;;;;;;;4881537;29;20122;-81
2023/10/13 09:00:55;;;;;;;8.80;3.95;;;;;;;;;;4880800;29;20103;-82
2023/10/13 09:03:40;;;;;;;9.23;4.57;;;;;;;;;;4885945;29;20036;-84
2023/10/13 09:06:26;;;;;;;12.75;4.20;;;;;;;;;;4882578;29;20032;-83
2023/10/13 09:09:26;;;;;;;11.23;4.30;;;;;;;;;;4889059;29;20039;-82
2023/10/13 09:12:14;;;;;;;9.27;3.75;;;;;;;;;;4913148;29;20534;-85
2023/10/13 09:18:15;;;;;;;12.00;3.60;;;;;;;;;;4953294;28;20046;-84
2023/10/13 09:21:29;;;;;;;7.68;3.25;;;;;;;;;;4949874;28;20035;-82
2023/10/13 09:24:21;;;;;;;9.48;3.05;;;;;;;;;;4952471;28;20089;-82
2023/10/13 09:27:12;;;;;;;13.98;4.32;;;;;;;;;;4949373;28;20453;-80
2023/10/13 09:30:01;;;;;;;13.77;3.75;;;;;;;;;;4934713;28;20026;-82
2023/10/13 09:32:46;;;;;;;7.65;3.47;;;;;;;;;;4950024;28;20059;-80
2023/10/13 09:35:36;;;;;;;9.80;3.28;;;;;;;;;;4954736;28;20031;-82
2023/10/13 09:38:22;;;;;;;14.77;3.30;;;;;;;;;;4949874;28;20065;-82
2023/10/13 09:41:20;;;;;;;8.90;3.65;;;;;;;;;;4945569;28;20041;-82
2023/10/13 09:44:08;;;;;;;8.88;3.70;;;;;;;;;;4952688;28;20133;-82
2023/10/13 09:46:54;;;;;;;9.40;3.63;;;;;;;;;;4952206;28;20039;-82
2023/10/13 09:49:51;;;;;;;9.07;3.22;;;;;;;;;;4948309;28;20073;-85
2023/10/13 09:52:39;;;;;;;7.88;2.90;;;;;;;;;;4939003;28;20034;-83
2023/10/13 09:55:25;;;;;;;8.93;3.42;;;;;;;;;;4960790;28;20060;-82
2023/10/13 09:58:13;;;;;;;5.50;3.28;;;;;;;;;;4948986;28;20075;-82
2023/10/13 10:01:07;;;;;;;9.13;3.80;;;;;;;;;;4954342;28;20031;-83
2023/10/13 10:04:07;;;;;;;7.57;3.13;;;;;;;;;;4948342;28;20034;-83
2023/10/13 10:06:56;;;;;;;9.90;3.47;;;;;;;;;;4953713;28;20034;-82
2023/10/13 10:09:43;;;;;;;;;;;;;;;;;;4948663;28;20028;-85
2023/10/13 10:12:36;;;;;;;9.15;3.63;;;;;;;;;;4956920;28;19918;-83
2023/10/13 10:15:33;;;;;;;9.35;2.88;;;;;;;;;;4949822;28;20122;-82
2023/10/13 10:18:22;;;;;;;14.52;3.63;;;;;;;;;;4948668;28;20050;-81
2023/10/13 10:21:07;;;;;;;11.40;3.70;;;;;;;;;;4947994;28;20470;-84
2023/10/13 10:23:53;;;;;;;10.05;4.00;;;;;;;;;;4947744;28;20477;-83
2023/10/13 10:26:49;;;;;;;8.60;2.85;;;;;;;;;;4949950;28;20024;-83
2023/10/13 10:29:41;;;;;;;7.47;2.83;;;;;;;;;;4945650;28;20027;-82
2023/10/13 10:32:32;;;;;;;13.70;3.50;;;;;;;;;;4950466;28;20637;-81
2023/10/13 10:35:22;;;;;;;7.25;2.55;;;;;;;;;;4962955;28;20027;-83
2023/10/13 10:38:11;;;;;;;14.65;3.30;;;;;;;;;;4949441;28;20031;-82
2023/10/13 10:41:24;;;;;;;12.68;3.83;;;;;;;;;;4946060;28;20022;-82
2023/10/13 10:44:15;;;;;;;12.15;4.35;;;;;;;;;;4950524;28;20023;-85
2023/10/13 10:47:47;;;;;;;14.70;6.93;;;;;;;;;;4951903;28;20589;-88
2023/10/13 10:50:34;;;;;;;7.68;3.45;;;;;;;;;;4953934;28;20090;-85
2023/10/13 10:53:22;;;;;;;14.70;5.50;;;;;;;;;;4958077;28;20015;-86
2023/10/13 10:56:19;;;;;;;14.88;3.90;;;;;;;;;;4942544;28;20011;-88
2023/10/13 10:59:05;;;;;;;8.13;3.47;;;;;;;;;;4948857;28;20031;-88
2023/10/13 11:01:53;;;;;;;13.60;5.10;;;;;;;;;;4954108;28;21157;-80
2023/10/13 11:04:50;;;;;;;7.10;3.78;;;;;;;;;;4949539;28;20077;-82
2023/10/13 11:07:35;;;;;;;7.47;3.35;;;;;;;;;;4960804;28;20051;-81
2023/10/13 11:10:27;;;;;;;11.73;4.00;;;;;;;;;;4947294;28;20814;-80
2023/10/13 11:13:14;;;;;;;9.50;3.30;;;;;;;;;;4951687;28;20066;-80
2023/10/13 11:15:59;;;;;;;9.93;3.42;;;;;;;;;;4955962;28;20038;-79
2023/10/13 11:18:45;;;;;;;6.28;3.45;;;;;;;;;;4973715;28;20062;-80
2023/10/13 11:21:37;;;;;;;8.25;3.33;;;;;;;;;;4962898;28;20443;-79
2023/10/13 11:24:22;;;;;;;11.45;3.38;;;;;;;;;;4968656;28;20026;-79
2023/10/13 11:27:21;;;;;;;14.20;3.25;;;;;;;;;;4954938;28;20465;-84
2023/10/13 11:30:20;;;;;;;8.00;4.25;;;;;;;;;;4969304;28;20344;-78
2023/10/13 11:33:07;;;;;;;12.70;2.88;;;;;;;;;;4950362;28;20030;-85
2023/10/13 11:35:55;;;;;;;7.05;3.35;;;;;;;;;;4965329;28;20174;-85
2023/10/13 11:41:33;;;;;;;9.07;3.08;;;;;;;;;;4965223;28;20027;-86
2023/10/13 11:47:32;;;;;;;10.60;2.90;;;;;;;;;;4947829;28;20038;-83
2023/10/13 11:50:12;;;;;;;7.97;2.88;;;;;;;;;;4952877;28;20035;-79
2023/10/13 11:52:57;;;;;;;8.15;3.00;;;;;;;;;;4953763;28;20034;-80
2023/10/13 11:55:42;;;;;;;11.13;3.95;;;;;;;;;;4953911;28;20023;-80
2023/10/13 11:58:30;;;;;;;7.28;3.78;;;;;;;;;;4950610;28;20058;-81
2023/10/13 12:07:16;;;;;;;8.00;2.70;;;;;;;;;;4950170;28;20106;-81
2023/10/13 12:12:53;;;;;;;11.40;4.45;;;;;;;;;;4962936;28;20030;-83
2023/10/13 12:15:48;;;;;;;9.43;3.55;;;;;;;;;;4951914;28;20082;-84
2023/10/13 12:18:33;;;;;;;8.93;3.70;;;;;;;;;;4968515;28;20047;-82
2023/10/13 12:21:21;;;;;;;8.77;3.53;;;;;;;;;;4952239;28;20042;-82
2023/10/13 12:24:11;;;;;;;6.22;3.05;;;;;;;;;;4960691;28;20106;-81
2023/10/13 12:26:57;;;;;;;9.50;3.50;;;;;;;;;;4948461;28;20279;-82
2023/10/13 12:29:46;;;;;;;7.65;3.15;;;;;;;;;;4962427;28;20496;-83
2023/10/13 12:32:31;;;;;;;8.88;3.40;;;;;;;;;;4959116;28;20137;-82
2023/10/13 12:35:27;;;;;;;8.10;3.20;;;;;;;;;;4945899;28;20059;-81
2023/10/13 12:51:07;;;;;;;10.43;3.22;;;;;;;;;;4933977;28;20035;-81
2023/10/13 12:53:52;;;;;;;8.05;3.33;;;;;;;;;;4948373;28;20058;-81
2023/10/13 12:56:41;;;;;;;8.82;3.35;;;;;;;;;;4954401;28;20037;-81
2023/10/13 12:59:26;;;;;;;;;;;;;;;;;;4965671;28;20026;-79
2023/10/13 13:02:15;;;;;;;12.55;3.60;;;;;;;;;;4950936;28;19917;-81
2023/10/13 13:05:11;;;;;;;5.85;3.67;;;;;;;;;;4962304;28;20035;-83
2023/10/13 13:08:21;;;;;;;9.23;3.03;;;;;;;;;;4950676;28;20477;-81
2023/10/13 13:11:07;;;;;;;6.05;3.10;;;;;;;;;;4961660;28;20035;-84
2023/10/13 13:13:52;;;;;;;9.18;2.90;;;;;;;;;;4952546;28;20089;-83
2023/10/13 13:16:39;;;;;;;6.90;2.92;;;;;;;;;;4947675;28;20062;-82
2023/10/13 13:19:25;;;;;;;8.20;2.92;;;;;;;;;;4922078;29;20398;-86
2023/10/13 13:22:14;;;;;;;10.55;3.05;;;;;;;;;;4923417;29;20114;-86
2023/10/13 13:25:00;;;;;;;9.20;3.88;;;;;;;;;;4918948;29;20028;-84
2023/10/13 13:27:45;;;;;;;10.07;3.15;;;;;;;;;;4939146;29;20039;-85
2023/10/13 13:30:34;;;;;;;12.32;3.28;;;;;;;;;;4916966;29;20040;-87
2023/10/13 13:33:23;;;;;;;;;;;;;;;;;;4924005;29;20035;-86
2023/10/13 13:36:15;;;;;;;6.85;2.72;;;;;;;;;;4921917;29;19919;-86
2023/10/13 13:39:01;;;;;;;9.75;3.25;;;;;;;;;;4914267;29;20031;-85
2023/10/13 13:41:50;;;;;;;8.23;2.90;;;;;;;;;;4916283;29;20079;-84
2023/10/13 13:44:38;;;;;;;6.22;3.28;;;;;;;;;;4921310;29;20059;-84
2023/10/13 13:47:28;;;;;;;11.60;3.83;;;;;;;;;;4917649;29;20038;-85
2023/10/13 13:50:17;;;;;;;7.32;2.88;;;;;;;;;;4915311;29;20107;-82
2023/10/13 13:53:08;;;;;;;12.10;2.80;;;;;;;;;;4922858;29;20027;-83
2023/10/13 13:55:54;;;;;;;9.52;3.00;;;;;;;;;;4915399;29;20028;-87
2023/10/13 13:58:40;;;;;;;9.15;3.00;;;;;;;;;;4930942;29;20039;-85
2023/10/13 14:01:25;;;;;;;6.80;3.17;;;;;;;;;;4917487;29;20118;-84
2023/10/13 14:04:11;;;;;;;8.65;3.28;;;;;;;;;;4927675;29;20175;-84
2023/10/13 14:06:56;;;;;;;6.93;3.15;;;;;;;;;;4916568;29;20485;-84
2023/10/13 14:09:43;;;;;;;8.27;2.70;;;;;;;;;;4920331;29;20468;-84
2023/10/13 14:12:41;;;;;;;6.50;3.10;;;;;;;;;;4922958;29;20035;-85
2023/10/13 14:15:27;;;;;;;11.02;3.35;;;;;;;;;;4918793;29;20020;-85
2023/10/13 14:18:14;;;;;;;6.28;3.60;;;;;;;;;;4939085;28;20066;-84
2023/10/13 14:21:03;;;;;;;8.95;3.53;;;;;;;;;;4947877;28;20031;-84
2023/10/13 14:23:49;;;;;;;7.03;3.05;;;;;;;;;;4953111;28;20490;-84
2023/10/13 14:26:35;;;;;;;7.90;3.35;;;;;;;;;;4950532;28;20385;-84
2023/10/13 14:29:21;;;;;;;5.65;2.72;;;;;;;;;;4950318;29;20525;-83
2023/10/13 14:32:09;;;;;;;7.00;3.00;;;;;;;;;;4951651;28;20015;-83
2023/10/13 14:34:57;;;;;;;7.38;3.00;;;;;;;;;;4948953;28;20102;-85
2023/10/13 14:37:42;;;;;;;6.22;2.78;;;;;;;;;;4963289;28;20027;-83
2023/10/13 14:40:29;;;;;;;5.93;3.60;;;;;;;;;;4950660;28;20493;-82
2023/10/13 14:43:14;;;;;;;9.02;3.72;;;;;;;;;;4949667;28;20066;-83
2023/10/13 14:46:00;;;;;;;7.63;3.20;;;;;;;;;;4952458;28;20110;-85
2023/10/13 14:48:48;;;;;;;11.93;4.78;;;;;;;;;;4945034;29;20039;-82
2023/10/13 14:51:39;;;;;;;6.47;2.58;;;;;;;;;;4948318;28;20019;-83
2023/10/13 14:54:33;;;;;;;9.00;3.03;;;;;;;;;;4957900;28;20031;-84
2023/10/13 14:57:24;;;;;;;6.72;2.80;;;;;;;;;;4953729;29;20053;-85
2023/10/13 15:00:13;;;;;;;6.43;3.28;;;;;;;;;;4952712;28;20031;-84
2023/10/13 15:03:01;;;;;;;5.13;2.78;;;;;;;;;;4949234;28;20524;-84
2023/10/13 15:05:46;;;;;;;7.50;2.78;;;;;;;;;;4951883;28;20031;-85
2023/10/13 15:08:31;;;;;;;6.97;2.33;;;;;;;;;;4962411;28;20039;-86
2023/10/13 15:11:19;;;;;;;7.05;2.42;;;;;;;;;;4952269;28;20114;-86
2023/10/13 15:14:08;;;;;;;8.83;3.60;;;;;;;;;;4954957;28;20033;-85
2023/10/13 15:16:53;;;;;;;4.47;2.40;;;;;;;;;;4946311;28;20051;-84
2023/10/13 15:19:47;;;;;;;6.15;2.97;;;;;;;;;;4919235;29;20113;-84
2023/10/13 15:22:34;;;;;;;6.68;3.17;;;;;;;;;;4921964;29;20386;-87
2023/10/13 15:25:29;;;;;;;6.35;3.00;;;;;;;;;;4923176;29;20027;-86
2023/10/13 15:28:14;;;;;;;4.63;2.40;;;;;;;;;;4924403;29;20031;-85
2023/10/13 15:31:22;;;;;;;10.32;3.65;;;;;;;;;;4921881;29;20066;-82
2023/10/13 15:34:14;;;;;;;11.07;3.15;;;;;;;;;;4923601;29;20035;-85
2023/10/13 15:37:00;;;;;;;6.65;2.92;;;;;;;;;;4926457;29;20026;-86
2023/10/13 15:39:45;;;;;;;5.95;2.88;;;;;;;;;;4925375;29;20036;-85
2023/10/13 15:42:30;;;;;;;6.57;3.03;;;;;;;;;;4922790;29;20074;-84
2023/10/13 15:45:18;;;;;;;4.95;3.03;;;;;;;;;;4905377;29;20031;-82
2023/10/13 15:48:04;;;;;;;10.55;2.85;;;;;;;;;;4920338;29;20027;-85
2023/10/13 15:50:49;;;;;;;11.07;4.82;;;;;;;;;;4921877;29;20035;-83
2023/10/13 15:53:36;;;;;;;12.30;3.95;;;;;;;;;;4920847;29;20086;-82
2023/10/13 15:56:21;;;;;;;6.25;2.90;;;;;;;;;;4915525;29;20039;-84
2023/10/13 15:59:07;;;;;;;9.82;3.75;;;;;;;;;;4920947;29;20031;-83
2023/10/13 16:01:57;;;;;;;9.73;3.47;;;;;;;;;;4925195;29;20055;-84
2023/10/13 16:04:44;;;;;;;9.00;3.05;;;;;;;;;;4917734;29;20101;-84
2023/10/13 16:07:29;;;;;;;17.05;3.78;;;;;;;;;;4917746;29;20063;-85
2023/10/13 16:10:14;;;;;;;22.27;8.82;;;;;;;;;;4917296;29;20032;-86
2023/10/13 16:12:59;;;;;;;9.65;4.20;;;;;;;;;;4916895;29;20130;-85
2023/10/13 16:15:47;;;;;;;10.50;5.07;;;;;;;;;;4920343;29;20222;-82
2023/10/13 16:18:35;;;;;;;8.25;4.07;;;;;;;;;;4931084;29;20091;-83
2023/10/13 16:21:20;;;;;;;9.97;4.13;;;;;;;;;;4931220;29;20031;-82
2023/10/13 16:24:10;;;;;;;11.98;4.60;;;;;;;;;;4933649;29;20051;-81
2023/10/13 16:26:55;;;;;;;16.02;5.78;;;;;;;;;;4931576;29;20023;-83
2023/10/13 16:29:44;;;;;;;12.18;5.57;;;;;;;;;;4937845;29;20040;-84
2023/10/13 16:32:30;;;;;;;11.23;4.22;;;;;;;;;;4931150;29;20031;-83
2023/10/13 16:35:16;;;;;;;10.02;4.45;;;;;;;;;;4924355;29;20378;-85
2023/10/13 16:38:06;;;;;;;13.60;4.68;;;;;;;;;;4935407;29;20118;-83
2023/10/13 16:40:53;;;;;;;12.18;5.75;;;;;;;;;;4939952;29;20085;-83
2023/10/13 16:43:39;;;;;;;11.45;4.45;;;;;;;;;;4926079;29;20490;-83
2023/10/13 16:46:25;;;;;;;10.73;4.38;;;;;;;;;;4929835;29;20027;-83
2023/10/13 16:49:11;;;;;;;12.15;4.85;;;;;;;;;;4931633;29;20040;-81
2023/10/13 16:51:56;;;;;;;11.13;4.40;;;;;;;;;;4930321;29;20229;-84
2023/10/13 16:54:42;;;;;;;6.22;3.55;;;;;;;;;;4945150;29;20059;-84
2023/10/13 16:57:27;;;;;;;10.82;3.88;;;;;;;;;;4919892;29;20054;-86
2023/10/13 17:00:13;;;;;;;10.07;3.88;;;;;;;;;;4932165;29;20038;-85
2023/10/13 17:02:58;;;;;;;8.00;3.50;;;;;;;;;;4946392;29;20055;-84
2023/10/13 17:05:45;;;;;;;9.90;3.90;;;;;;;;;;4921977;29;20083;-84
2023/10/13 17:08:30;;;;;;;15.07;6.35;;;;;;;;;;4928485;29;20422;-84
2023/10/13 17:11:16;;;;;;;13.18;6.72;;;;;;;;;;4932199;29;20040;-84
2023/10/13 17:14:05;;;;;;;16.80;6.97;;;;;;;;;;4928670;29;20150;-87
2023/10/13 17:16:51;;;;;;;12.95;6.25;;;;;;;;;;4933482;29;20079;-85
2023/10/13 17:19:36;;;;;;;14.25;6.82;;;;;;;;;;4952799;28;20032;-87
2023/10/13 17:22:21;;;;;;;17.85;6.93;;;;;;;;;;4951752;28;20078;-85
2023/10/13 17:25:12;;;;;;;12.73;6.25;;;;;;;;;;4949785;28;20347;-83
2023/10/13 17:27:58;;;;;;;11.30;5.93;;;;;;;;;;4953275;28;20579;-87
2023/10/13 17:30:49;;;;;;;15.77;7.00;;;;;;;;;;4945451;28;20031;-84
2023/10/13 17:33:38;;;;;;;14.73;6.53;;;;;;;;;;4960984;28;20050;-86
2023/10/13 17:36:29;;;;;;;14.73;6.60;;;;;;;;;;4944643;28;20508;-84
2023/10/13 17:39:17;;;;;;;11.10;6.22;;;;;;;;;;4953876;28;20397;-85
2023/10/13 17:42:03;;;;;;;12.27;7.28;;;;;;;;;;4948750;29;20031;-85
2023/10/13 17:44:52;;;;;;;10.02;6.28;;;;;;;;;;4952186;28;20054;-84
2023/10/13 17:47:38;;;;;;;13.35;6.45;;;;;;;;;;4948663;28;20047;-84
2023/10/13 17:50:23;;;;;;;10.82;5.28;;;;;;;;;;4933905;29;20033;-84
2023/10/13 17:53:10;;;;;;;12.18;4.70;;;;;;;;;;4950348;28;20118;-83
2023/10/13 17:55:55;;;;;;;14.40;5.53;;;;;;;;;;4942762;28;20544;-83
2023/10/13 17:58:41;;;;;;;10.88;5.88;;;;;;;;;;4952087;28;20524;-84
2023/10/13 18:01:31;;;;;;;11.30;4.95;;;;;;;;;;4962379;28;20026;-86
2023/10/13 18:04:17;;;;;;;10.63;5.20;;;;;;;;;;4966000;28;20027;-87
2023/10/13 18:07:05;;;;;;;9.55;5.47;;;;;;;;;;4967775;28;20038;-86
2023/10/13 18:09:50;;;;;;;10.30;5.63;;;;;;;;;;4974601;28;20044;-85
2023/10/13 18:12:36;;;;;;;13.10;6.20;;;;;;;;;;4951968;28;20141;-84
2023/10/13 18:15:23;;;;;;;11.10;4.88;;;;;;;;;;4964613;28;20118;-85
2023/10/13 18:18:08;;;;;;;14.85;5.80;;;;;;;;;;4948999;28;20137;-86
2023/10/13 18:21:00;;;;;;;9.68;4.47;;;;;;;;;;4951264;28;20023;-85
2023/10/13 18:23:46;;;;;;;9.75;4.38;;;;;;;;;;4949657;28;20186;-86
2023/10/13 18:26:32;;;;;;;10.27;4.45;;;;;;;;;;4955741;28;20028;-86
2023/10/13 18:29:17;;;;;;;11.90;5.22;;;;;;;;;;4953793;28;20034;-84
2023/10/13 18:32:04;;;;;;;11.20;4.88;;;;;;;;;;4956833;29;20039;-84
2023/10/13 18:34:49;;;;;;;11.77;6.82;;;;;;;;;;4953034;28;20043;-84
2023/10/13 18:37:36;;;;;;;13.52;7.95;;;;;;;;;;4956136;28;20118;-85
2023/10/13 18:40:22;;;;;;;18.25;11.07;;;;;;;;;;4960512;28;20024;-86
2023/10/13 18:43:08;;;;;;;20.15;12.20;;;;;;;;;;4975287;28;20027;-86
2023/10/13 18:46:00;;;;;;;14.02;7.82;;;;;;;;;;4959564;28;20046;-86
2023/10/13 18:48:46;;;;;;;16.08;7.78;;;;;;;;;;4976552;28;20504;-85
2023/10/13 18:51:32;;;;;;;16.00;9.32;;;;;;;;;;4982347;28;20019;-85
2023/10/13 18:54:17;;;;;;;13.93;7.18;;;;;;;;;;4956483;28;20031;-86
2023/10/13 18:57:03;;;;;;;14.32;8.48;;;;;;;;;;4947229;29;20071;-84
2023/10/13 18:59:49;;;;;;;11.23;6.80;;;;;;;;;;4951275;28;20046;-85
2023/10/13 19:02:35;;;;;;;16.58;5.72;;;;;;;;;;4936359;29;20118;-83
2023/10/13 19:05:20;;;;;;;8.57;4.30;;;;;;;;;;4959551;28;20035;-87
2023/10/13 19:08:07;;;;;;;12.25;4.93;;;;;;;;;;4953554;29;20035;-85
2023/10/13 19:10:53;;;;;;;15.70;5.40;;;;;;;;;;4958546;28;20027;-86
2023/10/13 19:13:39;;;;;;;11.80;3.92;;;;;;;;;;4956404;29;20119;-84
2023/10/13 19:16:25;;;;;;;9.38;4.50;;;;;;;;;;4948181;28;20023;-85
2023/10/13 19:19:10;;;;;;;11.45;5.47;;;;;;;;;;4906857;29;20470;-85
2023/10/13 19:21:57;;;;;;;9.77;4.35;;;;;;;;;;4934950;29;20024;-86
2023/10/13 19:24:42;;;;;;;12.57;6.03;;;;;;;;;;4922737;29;20095;-86
2023/10/13 19:27:27;;;;;;;11.25;5.10;;;;;;;;;;4920444;29;20024;-84